createdAt,value
2019-05-23T00:01:38.787Z,96913.13
2019-05-23T00:04:06.718Z,96913.70
2019-05-23T00:06:36.770Z,96918.27
2019-05-23T00:09:05.969Z,96919.82
2019-05-23T00:11:40.183Z,96917.54
2019-05-23T00:14:18.972Z,96917.84
2019-05-23T00:16:45.070Z,96912.72
2019-05-23T00:19:11.402Z,96913.33
2019-05-23T00:21:38.771Z,96913.16
2019-05-23T00:24:04.572Z,96912.80
2019-05-23T00:26:31.742Z,96908.22
2019-05-23T00:29:09.623Z,96908.02
2019-05-23T00:31:28.181Z,96905.05
2019-05-23T00:33:54.080Z,96905.12
2019-05-23T00:36:20.462Z,96909.08
2019-05-23T00:38:47.288Z,96902.59
2019-05-23T00:41:13.620Z,96907.23
2019-05-23T00:43:40.369Z,96904.44
2019-05-23T00:46:06.481Z,96902.16
2019-05-23T00:48:32.304Z,96897.66
2019-05-23T00:50:59.200Z,96897.31
2019-05-23T00:53:25.417Z,96902.17
2019-05-23T00:55:51.407Z,96897.08
2019-05-23T00:58:17.425Z,96894.99
2019-05-23T01:00:48.379Z,96897.44
2019-05-23T01:03:15.854Z,96909.20
2019-05-23T01:05:42.432Z,96899.54
2019-05-23T01:08:09.956Z,96895.48
2019-05-23T01:10:35.748Z,96895.34
2019-05-23T01:13:03.360Z,96899.24
2019-05-23T01:15:33.124Z,96900.27
2019-05-23T01:18:00.216Z,96921.03
2019-05-23T01:20:30.712Z,96894.84
2019-05-23T01:22:58.357Z,96897.19
2019-05-23T01:25:26.192Z,96897.67
2019-05-23T01:27:52.386Z,96894.41
2019-05-23T01:30:22.911Z,96895.16
2019-05-23T01:32:50.624Z,96899.87
2019-05-23T01:35:18.337Z,96894.69
2019-05-23T01:37:46.142Z,96897.14
2019-05-23T01:40:12.612Z,96887.98
2019-05-23T01:42:39.452Z,96885.91
2019-05-23T01:45:08.550Z,96890.65
2019-05-23T01:47:34.654Z,96885.16
2019-05-23T01:50:00.648Z,96884.77
2019-05-23T01:52:26.990Z,96883.09
2019-05-23T01:54:53.383Z,96885.39
2019-05-23T01:57:19.197Z,96879.36
2019-05-23T01:59:45.435Z,96886.45
2019-05-23T02:02:13.419Z,96886.08
2019-05-23T02:04:39.910Z,96881.81
2019-05-23T02:07:06.620Z,96888.36
2019-05-23T02:09:32.532Z,96887.23
2019-05-23T02:11:58.406Z,96878.34
2019-05-23T02:14:24.815Z,96881.10
2019-05-23T02:16:51.019Z,96884.14
2019-05-23T02:19:17.430Z,96887.38
2019-05-23T02:21:43.814Z,96886.08
2019-05-23T02:24:11.236Z,96890.72
2019-05-23T02:26:37.731Z,96890.85
2019-05-23T02:29:04.238Z,96882.02
2019-05-23T02:31:31.868Z,96889.58
2019-05-23T02:33:59.533Z,96885.59
2019-05-23T02:36:25.716Z,96884.20
2019-05-23T02:38:53.439Z,96888.75
2019-05-23T02:41:26.079Z,96883.22
2019-05-23T02:43:55.985Z,96881.92
2019-05-23T02:46:24.228Z,96881.80
2019-05-23T02:48:54.665Z,96879.05
2019-05-23T02:51:25.305Z,96878.19
2019-05-23T02:53:53.424Z,96877.66
2019-05-23T02:56:19.772Z,96870.64
2019-05-23T02:59:03.997Z,96876.83
2019-05-23T03:01:41.585Z,96871.62
2019-05-23T03:04:11.474Z,96879.67
2019-05-23T03:06:39.045Z,96874.66
2019-05-23T03:09:06.551Z,96875.91
2019-05-23T03:11:34.643Z,96867.06
2019-05-23T03:14:01.733Z,96874.29
2019-05-23T03:16:28.357Z,96871.13
2019-05-23T03:19:02.417Z,96873.77
2019-05-23T03:21:28.858Z,96877.88
2019-05-23T03:23:55.267Z,96872.48
2019-05-23T03:26:39.068Z,96878.66
2019-05-23T03:29:07.636Z,96881.48
2019-05-23T03:31:35.935Z,96880.45
2019-05-23T03:34:01.850Z,96874.79
2019-05-23T03:36:27.822Z,96883.26
2019-05-23T03:38:54.741Z,96879.38
2019-05-23T03:41:21.011Z,96881.91
2019-05-23T03:43:48.176Z,96880.93
2019-05-23T03:46:15.982Z,96879.03
2019-05-23T03:48:41.795Z,96873.16
2019-05-23T03:51:09.613Z,96874.30
2019-05-23T03:53:36.332Z,96877.52
2019-05-23T03:56:03.244Z,96883.84
2019-05-23T03:58:29.502Z,96881.73
2019-05-23T04:00:57.568Z,96884.95
2019-05-23T04:03:24.623Z,96882.36
2019-05-23T04:05:50.471Z,96878.38
2019-05-23T04:08:16.355Z,96877.74
2019-05-23T04:10:42.244Z,96883.14
2019-05-23T04:13:09.027Z,96874.67
2019-05-23T04:15:35.462Z,96870.13
2019-05-23T04:18:01.275Z,96871.14
2019-05-23T04:20:31.016Z,96876.14
2019-05-23T04:22:57.355Z,96905.13
2019-05-23T04:25:23.794Z,96878.88
2019-05-23T04:27:49.988Z,96874.32
2019-05-23T04:30:19.205Z,96873.95
2019-05-23T04:32:45.264Z,96895.68
2019-05-23T04:35:15.529Z,96876.37
2019-05-23T04:37:41.858Z,96910.03
2019-05-23T04:40:09.762Z,96875.75
2019-05-23T04:42:35.754Z,96882.19
2019-05-23T04:45:03.382Z,96878.02
2019-05-23T04:47:30.375Z,96875.12
2019-05-23T04:49:56.176Z,96880.78
2019-05-23T04:52:22.610Z,96876.03
2019-05-23T04:54:49.810Z,96881.64
2019-05-23T04:57:15.653Z,96878.38
2019-05-23T04:59:41.557Z,96883.85
2019-05-23T05:02:24.789Z,96878.60
2019-05-23T05:04:35.504Z,96874.78
2019-05-23T05:07:04.135Z,96872.12
2019-05-23T05:09:32.350Z,96891.41
2019-05-23T05:11:59.733Z,96867.02
2019-05-23T05:14:25.949Z,96865.73
2019-05-23T05:16:52.238Z,96871.36
2019-05-23T05:19:19.314Z,96874.94
2019-05-23T05:21:46.427Z,96871.86
2019-05-23T05:24:12.253Z,96905.93
2019-05-23T05:26:38.730Z,96879.77
2019-05-23T05:29:06.316Z,96886.50
2019-05-23T05:31:32.398Z,96891.98
2019-05-23T05:33:58.667Z,96888.80
2019-05-23T05:36:24.767Z,96896.31
2019-05-23T05:38:54.669Z,96896.02
2019-05-23T05:41:20.583Z,96894.66
2019-05-23T05:43:49.189Z,96896.44
2019-05-23T05:46:15.180Z,96896.03
2019-05-23T05:48:42.794Z,96894.47
2019-05-23T05:51:08.575Z,96925.24
2019-05-23T05:53:37.917Z,96897.25
2019-05-23T05:56:03.936Z,96907.39
2019-05-23T05:58:31.766Z,96901.88
2019-05-23T06:01:02.111Z,96901.08
2019-05-23T06:03:27.922Z,96903.70
2019-05-23T06:05:58.405Z,96905.84
2019-05-23T06:08:26.115Z,96894.70
2019-05-23T06:10:51.923Z,96895.77
2019-05-23T06:13:18.121Z,96891.45
2019-05-23T06:15:44.373Z,96895.53
2019-05-23T06:18:11.100Z,96889.32
2019-05-23T06:20:40.950Z,96893.30
2019-05-23T06:23:08.844Z,96887.12
2019-05-23T06:25:34.669Z,96882.70
2019-05-23T06:28:00.714Z,96886.44
2019-05-23T06:30:26.593Z,96882.77
2019-05-23T06:32:52.999Z,96882.13
2019-05-23T06:35:19.605Z,96883.28
2019-05-23T06:37:46.147Z,96883.57
2019-05-23T06:40:12.147Z,96880.97
2019-05-23T06:42:37.988Z,96876.91
2019-05-23T06:45:05.603Z,96872.78
2019-05-23T06:47:31.576Z,96883.84
2019-05-23T06:49:57.692Z,96877.45
2019-05-23T06:52:23.475Z,96885.89
2019-05-23T06:54:49.390Z,96886.09
2019-05-23T06:57:19.987Z,96890.52
2019-05-23T06:59:46.105Z,96884.73
2019-05-23T07:02:14.840Z,96884.11
2019-05-23T07:04:41.559Z,96897.88
2019-05-23T07:07:08.848Z,96880.08
2019-05-23T07:09:34.954Z,96871.44
2019-05-23T07:12:04.440Z,96875.03
2019-05-23T07:14:30.442Z,96888.88
2019-05-23T07:16:56.497Z,96875.22
2019-05-23T07:19:22.307Z,96881.58
2019-05-23T07:21:48.414Z,96879.83
2019-05-23T07:24:14.416Z,96887.66
2019-05-23T07:26:40.314Z,96887.81
2019-05-23T07:29:10.681Z,96890.58
2019-05-23T07:31:36.602Z,96910.90
2019-05-23T07:34:05.677Z,96888.95
2019-05-23T07:36:31.441Z,96890.05
2019-05-23T07:38:59.105Z,96889.20
2019-05-23T07:41:25.348Z,96912.31
2019-05-23T07:43:54.343Z,96888.24
2019-05-23T07:46:20.548Z,96902.70
2019-05-23T07:48:50.214Z,96878.95
2019-05-23T07:51:16.010Z,96906.30
2019-05-23T07:53:52.976Z,96883.12
2019-05-23T07:56:21.015Z,96888.50
2019-05-23T07:58:47.158Z,96882.90
2019-05-23T08:01:20.943Z,96882.19
2019-05-23T08:03:48.114Z,96880.39
2019-05-23T08:06:13.935Z,96879.73
2019-05-23T08:08:39.808Z,96880.95
2019-05-23T08:11:05.609Z,96880.95
2019-05-23T08:13:31.916Z,96877.02
2019-05-23T08:15:57.942Z,96876.64
2019-05-23T08:18:23.833Z,96875.20
2019-05-23T08:20:49.639Z,96877.30
2019-05-23T08:23:15.829Z,96877.08
2019-05-23T08:25:41.982Z,96877.00
2019-05-23T08:28:08.254Z,96869.05
2019-05-23T08:30:34.059Z,96863.02
2019-05-23T08:33:00.411Z,96862.97
2019-05-23T08:35:26.469Z,96865.98
2019-05-23T08:37:53.051Z,96865.42
2019-05-23T08:40:20.761Z,96868.66
2019-05-23T08:42:46.737Z,96863.53
2019-05-23T08:45:13.254Z,96872.00
2019-05-23T08:47:39.039Z,96870.72
2019-05-23T08:50:07.801Z,96869.28
2019-05-23T08:52:33.935Z,96859.92
2019-05-23T08:55:03.529Z,96859.92
2019-05-23T08:57:29.640Z,96852.33
2019-05-23T08:59:55.700Z,96861.98
2019-05-23T09:02:21.725Z,96861.98
2019-05-23T09:05:03.300Z,96846.78
2019-05-23T09:07:16.547Z,96846.78
2019-05-23T09:09:43.083Z,96847.67
2019-05-23T09:12:09.378Z,96847.67
2019-05-23T09:14:35.280Z,96848.59
2019-05-23T09:17:02.089Z,96848.59
2019-05-23T09:19:27.928Z,96841.45
2019-05-23T09:21:57.826Z,96841.45
2019-05-23T09:24:21.556Z,96840.95
2019-05-23T09:26:47.556Z,96840.95
2019-05-23T09:29:16.818Z,96841.02
2019-05-23T09:31:43.097Z,96841.02
2019-05-23T09:34:08.997Z,96844.77
2019-05-23T09:36:35.129Z,96844.77
2019-05-23T09:39:06.014Z,96836.56
2019-05-23T09:41:32.067Z,96833.94
2019-05-23T09:43:57.885Z,96833.36
2019-05-23T09:46:23.934Z,96832.16
2019-05-23T09:48:49.845Z,96832.42
2019-05-23T09:51:15.731Z,96825.22
2019-05-23T09:53:47.008Z,96830.73
2019-05-23T09:56:12.435Z,96826.34
2019-05-23T09:58:38.230Z,96822.55
2019-05-23T10:01:07.856Z,96821.47
2019-05-23T10:03:33.777Z,96851.11
2019-05-23T10:05:59.564Z,96826.79
2019-05-23T10:08:25.373Z,96821.09
2019-05-23T10:10:54.038Z,96820.22
2019-05-23T10:13:36.025Z,96806.86
2019-05-23T10:15:53.840Z,96806.86
2019-05-23T10:18:21.600Z,96808.20
2019-05-23T10:20:47.434Z,96807.16
2019-05-23T10:23:13.475Z,96807.16
2019-05-23T10:25:39.262Z,96813.69
2019-05-23T10:28:05.403Z,96798.55
2019-05-23T10:30:31.234Z,96794.94
2019-05-23T10:32:57.036Z,96798.88
2019-05-23T10:35:24.562Z,96795.99
2019-05-23T10:37:50.422Z,96796.14
2019-05-23T10:40:16.634Z,96794.53
2019-05-23T10:42:45.447Z,96791.75
2019-05-23T10:45:13.777Z,96783.17
2019-05-23T10:47:39.525Z,96798.20
2019-05-23T10:50:08.829Z,96793.23
2019-05-23T10:52:35.283Z,96785.55
2019-05-23T10:55:01.434Z,96784.64
2019-05-23T10:57:27.234Z,96779.45
2019-05-23T10:59:53.316Z,96772.48
2019-05-23T11:02:19.613Z,96777.41
2019-05-23T11:04:48.401Z,96774.97
2019-05-23T11:07:15.010Z,96773.30
2019-05-23T11:09:41.586Z,96769.13
2019-05-23T11:12:08.826Z,96764.87
2019-05-23T11:14:38.128Z,96764.03
2019-05-23T11:17:05.681Z,96755.98
2019-05-23T11:19:31.564Z,96754.59
2019-05-23T11:21:57.364Z,96750.00
2019-05-23T11:24:26.387Z,96750.38
2019-05-23T11:26:52.192Z,96760.78
2019-05-23T11:29:21.328Z,96749.44
2019-05-23T11:31:47.555Z,96772.32
2019-05-23T11:34:13.545Z,96753.05
2019-05-23T11:36:39.328Z,96749.41
2019-05-23T11:39:06.940Z,96738.73
2019-05-23T11:41:32.973Z,96741.03
2019-05-23T11:43:58.732Z,96739.00
2019-05-23T11:46:29.193Z,96735.70
2019-05-23T11:48:55.239Z,96737.44
2019-05-23T11:51:25.068Z,96727.44
2019-05-23T11:54:05.950Z,96734.06
2019-05-23T11:56:17.316Z,96727.06
2019-05-23T11:58:43.233Z,96723.93
2019-05-23T12:01:29.326Z,96727.39
2019-05-23T12:04:02.829Z,96739.64
2019-05-23T12:06:30.785Z,96717.81
2019-05-23T12:08:56.584Z,96723.95
2019-05-23T12:11:22.571Z,96713.70
2019-05-23T12:13:48.381Z,96709.99
2019-05-23T12:16:14.594Z,96708.74
2019-05-23T12:18:40.625Z,96706.30
2019-05-23T12:21:06.778Z,96704.88
2019-05-23T12:23:32.884Z,96703.08
2019-05-23T12:25:58.698Z,96701.03
2019-05-23T12:28:24.902Z,96693.34
2019-05-23T12:30:50.942Z,96695.65
2019-05-23T12:33:17.058Z,96694.83
2019-05-23T12:35:43.136Z,96691.37
2019-05-23T12:38:09.010Z,96688.46
2019-05-23T12:40:35.063Z,96692.87
2019-05-23T12:43:00.904Z,96692.28
2019-05-23T12:45:26.819Z,96683.58
2019-05-23T12:48:09.600Z,96680.97
2019-05-23T12:50:43.200Z,96682.70
2019-05-23T12:53:10.868Z,96680.14
2019-05-23T12:55:37.089Z,96675.83
2019-05-23T12:58:02.853Z,96672.20
2019-05-23T13:00:36.725Z,96669.07
2019-05-23T13:03:03.757Z,96667.34
2019-05-23T13:05:30.154Z,96663.28
2019-05-23T13:07:56.470Z,96667.30
2019-05-23T13:10:24.452Z,96657.30
2019-05-23T13:12:50.075Z,96659.00
2019-05-23T13:15:16.268Z,96658.20
2019-05-23T13:17:42.047Z,96658.53
2019-05-23T13:20:07.860Z,96660.81
2019-05-23T13:22:34.480Z,96647.75
2019-05-23T13:25:00.417Z,96656.20
2019-05-23T13:27:26.330Z,96659.27
2019-05-23T13:29:52.124Z,96655.05
2019-05-23T13:32:17.999Z,96646.78
2019-05-23T13:34:44.235Z,96648.17
2019-05-23T13:37:16.643Z,96639.81
2019-05-23T13:39:39.957Z,96641.22
2019-05-23T13:42:05.947Z,96640.06
2019-05-23T13:44:35.505Z,96637.60
2019-05-23T13:46:59.555Z,96633.64
2019-05-23T13:49:25.452Z,96623.11
2019-05-23T13:51:51.828Z,96634.73
2019-05-23T13:54:17.699Z,96639.95
2019-05-23T13:56:47.539Z,96631.19
2019-05-23T13:59:11.869Z,96633.77
2019-05-23T14:01:37.721Z,96631.05
2019-05-23T14:04:04.694Z,96630.60
2019-05-23T14:06:30.694Z,96626.78
2019-05-23T14:08:56.487Z,96613.72
2019-05-23T14:11:22.572Z,96612.95
2019-05-23T14:13:49.104Z,96611.27
2019-05-23T14:16:16.207Z,96611.02
2019-05-23T14:18:42.019Z,96619.09
2019-05-23T14:21:08.084Z,96613.20
2019-05-23T14:23:33.997Z,96611.94
2019-05-23T14:26:00.106Z,96611.84
2019-05-23T14:28:26.370Z,96601.30
2019-05-23T14:31:03.658Z,96605.17
2019-05-23T14:33:40.345Z,96599.34
2019-05-23T14:36:31.092Z,96594.46
2019-05-23T14:38:56.549Z,96596.82
2019-05-23T14:41:22.609Z,96595.67
2019-05-23T14:43:50.129Z,96594.27
2019-05-23T14:46:17.823Z,96512.25
2019-05-23T14:48:45.851Z,96580.80
2019-05-23T14:51:13.659Z,96588.03
2019-05-23T14:53:50.184Z,96579.88
2019-05-23T14:56:21.259Z,96583.42
2019-05-23T14:58:47.577Z,96599.55
2019-05-23T15:01:14.732Z,96578.64
2019-05-23T15:03:41.011Z,96570.06
2019-05-23T15:06:09.817Z,96570.26
2019-05-23T15:08:50.256Z,96578.55
2019-05-23T15:11:03.526Z,96568.02
2019-05-23T15:13:29.424Z,96569.58
2019-05-23T15:15:59.093Z,96557.17
2019-05-23T15:18:25.115Z,96579.92
2019-05-23T15:20:53.950Z,96556.86
2019-05-23T15:23:20.003Z,96580.23
2019-05-23T15:25:47.280Z,96559.30
2019-05-23T15:28:13.172Z,96580.14
2019-05-23T15:30:39.068Z,96554.38
2019-05-23T15:33:04.889Z,96557.33
2019-05-23T15:35:33.222Z,96560.81
2019-05-23T15:37:59.394Z,96559.82
2019-05-23T15:40:25.396Z,96557.89
2019-05-23T15:42:54.268Z,96554.57
2019-05-23T15:45:20.371Z,96571.48
2019-05-23T15:47:48.112Z,96556.39
2019-05-23T15:50:18.577Z,96556.39
2019-05-23T15:52:46.292Z,96551.02
2019-05-23T15:55:30.935Z,96548.19
2019-05-23T15:58:01.539Z,96546.17
2019-05-23T16:00:48.012Z,96538.13
2019-05-23T16:03:21.556Z,96545.96
2019-05-23T16:05:47.587Z,96536.67
2019-05-23T16:08:13.570Z,96540.31
2019-05-23T16:10:40.368Z,96533.27
2019-05-23T16:13:06.170Z,96535.81
2019-05-23T16:15:32.421Z,96538.45
2019-05-23T16:17:58.362Z,96540.48
2019-05-23T16:20:24.357Z,96538.23
2019-05-23T16:22:50.179Z,96529.30
2019-05-23T16:25:16.687Z,96529.67
2019-05-23T16:27:43.268Z,96522.81
2019-05-23T16:30:09.449Z,96526.59
2019-05-23T16:32:35.539Z,96524.51
2019-05-23T16:35:01.319Z,96522.03
2019-05-23T16:37:27.121Z,96527.15
2019-05-23T16:39:52.897Z,96518.25
2019-05-23T16:42:18.818Z,96521.42
2019-05-23T16:44:44.602Z,96521.03
2019-05-23T16:47:10.434Z,96512.92
2019-05-23T16:49:36.518Z,96514.16
2019-05-23T16:52:02.425Z,96515.39
2019-05-23T16:54:30.337Z,96515.07
2019-05-23T16:57:01.063Z,96509.39
2019-05-23T16:59:31.547Z,96505.95
2019-05-23T17:02:06.385Z,96509.73
2019-05-23T17:04:38.070Z,96516.53
2019-05-23T17:07:24.190Z,96508.27
2019-05-23T17:10:08.492Z,96510.28
2019-05-23T17:12:39.117Z,96510.64
2019-05-23T17:15:13.687Z,96508.54
2019-05-23T17:18:01.592Z,96514.20
2019-05-23T17:20:29.266Z,96514.53
2019-05-23T17:23:00.076Z,96511.25
2019-05-23T17:25:27.915Z,96510.27
2019-05-23T17:28:15.790Z,96507.30
2019-05-23T17:30:43.755Z,96503.65
2019-05-23T17:33:09.832Z,96509.13
2019-05-23T17:35:35.882Z,96506.16
2019-05-23T17:38:04.436Z,96505.65
2019-05-23T17:40:30.580Z,96522.89
2019-05-23T17:42:59.904Z,96500.66
2019-05-23T17:45:25.679Z,96520.80
2019-05-23T17:47:55.207Z,96502.10
2019-05-23T17:50:21.326Z,96491.66
2019-05-23T17:52:50.358Z,96497.58
2019-05-23T17:55:16.430Z,96508.19
2019-05-23T17:57:42.452Z,96498.23
2019-05-23T18:00:08.774Z,96495.23
2019-05-23T18:02:34.849Z,96500.28
2019-05-23T18:05:00.754Z,96501.37
2019-05-23T18:07:26.814Z,96507.50
2019-05-23T18:09:55.650Z,96498.66
2019-05-23T18:12:21.815Z,96505.41
2019-05-23T18:14:50.642Z,96501.51
2019-05-23T18:17:16.827Z,96507.41
2019-05-23T18:19:45.634Z,96517.61
2019-05-23T18:22:13.646Z,96523.09
2019-05-23T18:24:40.267Z,96513.50
2019-05-23T18:27:08.001Z,96511.05
2019-05-23T18:29:34.022Z,96508.20
2019-05-23T18:32:00.360Z,96515.27
2019-05-23T18:34:26.162Z,96494.28
2019-05-23T18:36:52.255Z,96514.95
2019-05-23T18:39:19.161Z,96520.27
2019-05-23T18:41:45.440Z,96517.49
2019-05-23T18:44:12.847Z,96523.31
2019-05-23T18:46:49.919Z,96520.30
2019-05-23T18:49:16.655Z,96522.24
2019-05-23T18:51:42.794Z,96523.08
2019-05-23T18:54:09.053Z,96528.54
2019-05-23T18:56:34.879Z,96531.05
2019-05-23T18:59:01.059Z,96525.20
2019-05-23T19:01:27.573Z,96532.84
2019-05-23T19:03:53.833Z,96541.40
2019-05-23T19:06:20.374Z,96537.20
2019-05-23T19:08:47.330Z,96528.40
2019-05-23T19:11:20.725Z,96545.64
2019-05-23T19:13:41.245Z,96545.64
2019-05-23T19:16:07.049Z,96544.62
2019-05-23T19:18:33.145Z,96546.30
2019-05-23T19:21:00.213Z,96540.81
2019-05-23T19:23:26.579Z,96547.66
2019-05-23T19:25:52.755Z,96536.14
2019-05-23T19:28:22.980Z,96526.67
2019-05-23T19:30:48.798Z,96536.59
2019-05-23T19:33:14.938Z,96536.59
2019-05-23T19:35:41.034Z,96532.77
2019-05-23T19:38:10.129Z,96530.58
2019-05-23T19:40:36.053Z,96530.58
2019-05-23T19:43:06.269Z,96544.48
2019-05-23T19:45:32.719Z,96565.38
2019-05-23T19:47:58.916Z,96547.87
2019-05-23T19:50:26.327Z,96546.66
2019-05-23T19:52:52.129Z,96551.23
2019-05-23T19:55:17.934Z,96553.02
2019-05-23T19:57:44.439Z,96551.61
2019-05-23T20:00:17.849Z,96553.55
2019-05-23T20:02:51.474Z,96553.80
2019-05-23T20:05:22.180Z,96556.77
2019-05-23T20:07:48.287Z,96562.21
2019-05-23T20:10:15.334Z,96558.73
2019-05-23T20:12:41.220Z,96563.02
2019-05-23T20:15:07.366Z,96559.60
2019-05-23T20:17:33.524Z,96559.88
2019-05-23T20:19:59.372Z,96556.72
2019-05-23T20:22:25.269Z,96553.63
2019-05-23T20:24:51.347Z,96554.48
2019-05-23T20:27:17.240Z,96555.77
2019-05-23T20:29:43.333Z,96559.48
2019-05-23T20:32:09.718Z,96550.80
2019-05-23T20:34:35.844Z,96552.55
2019-05-23T20:37:01.676Z,96548.63
2019-05-23T20:39:27.520Z,96550.43
2019-05-23T20:41:53.411Z,96549.34
2019-05-23T20:44:19.236Z,96547.85
2019-05-23T20:46:45.199Z,96549.78
2019-05-23T20:49:10.972Z,96550.55
2019-05-23T20:51:40.832Z,96554.88
2019-05-23T20:54:06.966Z,96554.17
2019-05-23T20:56:35.903Z,96549.42
2019-05-23T20:59:01.843Z,96557.67
2019-05-23T21:01:29.777Z,96553.77
2019-05-23T21:03:56.214Z,96550.70
2019-05-23T21:06:21.968Z,96553.33
2019-05-23T21:08:47.796Z,96556.31
2019-05-23T21:11:13.814Z,96555.50
2019-05-23T21:13:42.631Z,96553.34
2019-05-23T21:16:08.717Z,96574.58
2019-05-23T21:18:37.683Z,96555.52
2019-05-23T21:21:04.160Z,96555.61
2019-05-23T21:23:32.990Z,96558.28
2019-05-23T21:26:00.778Z,96558.16
2019-05-23T21:28:26.692Z,96547.41
2019-05-23T21:30:52.821Z,96548.06
2019-05-23T21:33:22.179Z,96554.97
2019-05-23T21:35:47.963Z,96554.74
2019-05-23T21:38:13.762Z,96547.82
2019-05-23T21:40:41.488Z,96549.63
2019-05-23T21:43:07.630Z,96548.19
2019-05-23T21:45:33.569Z,96545.47
2019-05-23T21:47:59.483Z,96546.91
2019-05-23T21:50:28.288Z,96549.88
2019-05-23T21:52:54.613Z,96547.02
2019-05-23T21:55:38.267Z,96543.09
2019-05-23T21:58:04.747Z,96556.33
2019-05-23T22:01:06.477Z,96543.34
2019-05-23T22:03:38.163Z,96545.83
2019-05-23T22:06:07.885Z,96541.55
2019-05-23T22:08:34.002Z,96535.11
2019-05-23T22:10:59.774Z,96529.53
2019-05-23T22:13:25.568Z,96536.40
2019-05-23T22:15:52.297Z,96528.77
2019-05-23T22:18:18.196Z,96528.03
2019-05-23T22:20:44.084Z,96530.08
2019-05-23T22:23:10.011Z,96533.27
2019-05-23T22:25:35.788Z,96524.35
2019-05-23T22:28:01.580Z,96522.69
2019-05-23T22:30:27.392Z,96522.41
2019-05-23T22:32:53.302Z,96520.74
2019-05-23T22:35:20.092Z,96527.03
2019-05-23T22:37:46.148Z,96524.78
2019-05-23T22:40:12.537Z,96523.36
2019-05-23T22:42:38.485Z,96526.33
2019-05-23T22:45:08.075Z,96526.42
2019-05-23T22:47:33.895Z,96527.58
2019-05-23T22:49:59.815Z,96531.58
2019-05-23T22:52:25.603Z,96536.41
2019-05-23T22:54:51.416Z,96533.48
2019-05-23T22:57:17.212Z,96530.18
2019-05-23T22:59:43.119Z,96528.17
2019-05-23T23:02:10.937Z,96529.23
2019-05-23T23:04:36.775Z,96537.41
2019-05-23T23:07:03.043Z,96534.98
2019-05-23T23:09:28.830Z,96533.42
2019-05-23T23:11:54.935Z,96533.30
2019-05-23T23:14:21.038Z,96531.74
2019-05-23T23:16:47.895Z,96527.31
2019-05-23T23:19:13.782Z,96522.25
2019-05-23T23:21:39.562Z,96521.77
2019-05-23T23:24:05.698Z,96518.67
2019-05-23T23:26:31.796Z,96517.02
2019-05-23T23:28:57.689Z,96513.45
2019-05-23T23:31:23.771Z,96509.08
2019-05-23T23:33:49.581Z,96512.00
2019-05-23T23:36:15.674Z,96514.33
2019-05-23T23:38:41.846Z,96514.34
2019-05-23T23:41:07.694Z,96516.09
2019-05-23T23:43:33.793Z,96516.11
2019-05-23T23:46:18.276Z,96511.22
2019-05-23T23:49:02.834Z,96507.84
2019-05-23T23:51:47.555Z,96507.48
2019-05-23T23:54:31.977Z,96507.30
2019-05-23T23:57:16.382Z,96506.03
2019-05-23T23:59:42.058Z,96507.08
